Impacts TAF Board
For situational awareness. Not to be used for flight planning purposes.
IDs:

KPIE - St Petersburg/Clearw, FL, US

Issued at 2324 UTC 30 Jun 2022
Updated at 2343 UTC 30 Jun 2022
Potential Impact None Slight Moderate High
Time2253Z 01/00Z 01/01Z 01/02Z 01/03Z 01/04Z 01/05Z 01/06Z 01/07Z 01/08Z 01/09Z 01/10Z 01/11Z 01/12Z>>
Type OBS PRVL PRVL PRVL PRVL PRVL PRVL PRVL PRVL PRVL PRVL PRVL PRVL PRVL
VIS 10 >6 >6 >6 >6 >6 >6 >6 >6 >6 >6 >6 >6 >6
CIG -- -- -- 200 200 200 200 200 200 200 200 200 200 200
Cover SCT FEW FEW BKN BKN BKN BKN BKN BKN BKN BKN BKN BKN BKN
FltCat VFR VFR VFR VFR VFR VFR VFR VFR VFR VFR VFR VFR VFR VFR
WX -- VCTS VCTS -- -- -- -- -- -- -- -- -- -- --
WDir 130 20 20 VRB VRB VRB VRB VRB VRB VRB 160 160 160 160
WSpd 7 6 6 5 5 5 5 5 5 5 3 3 3 3
WGst -- -- -- -- -- -- -- -- -- -- -- -- -- --
WSHgt -- -- -- -- -- -- -- -- -- -- -- -- -- --
WSDir -- -- -- -- -- -- -- -- -- -- -- -- -- --
WSSpd -- -- -- -- -- -- -- -- -- -- -- -- -- --
Raw TAF
KPIE 302324Z 0100/0124 02006KT P6SM VCTS FEW030CB FEW200
  FM010200 VRB05KT P6SM SCT020 BKN200
  FM010900 16003KT P6SM SCT030 BKN200
  FM011900 18007KT P6SM VCTS SCT030CB SCT250


Raw METAR
KPIE 302253Z COR 13007KT 10SM SCT032 31/23 A3005 RMK AO2 LTG DSNT SE SLP177 T03060233
KPIE 302238Z VRB03KT 10SM SCT028 31/24 A3005 RMK AO2 LTG DSNT SE AND S T03110239
KPIE 302153Z 31008KT 10SM VCTS CLR 31/24 A3006 RMK AO2 LTG DSNT NE-SE SLP177 T03060239
KPIE 302053Z 30010KT 10SM FEW080 31/24 A3006 RMK AO2 LTG DSNT NE AND E SLP179 T03110244 56016

METAR Board
Radar Display
Forecast Discussion
For situational awareness. Not to be used for flight planning purposes.